Skip Navigation Links
NOAA logo - Click to go to the NOAA homepage
NOAA's National Weather Service
Alaska Aviation Weather Unit
  NWS logo - Click to go to the NWS homepage
Left Navbar Graphic     12 AKDT = 20 GMT

   
NOAA is celebrating 200 years of science, service, and stewardship. Visit the NOAA 200th celebration Web site to learn more.
USA.gov is the U.S. Government's official Web portal to all Federal, state and local government Web resources and services.
Facebook
NWS on Facebook

Important Change Regarding the AAWU Web Presence

 

Over the last several months, the AAWU has been working to navigate its webpages to a nationally supported server. Security, as well as other needs, have necessitated the change.  We have been given an extension for the site changeover while we diligently work at addressing feedback received. As of July 14, 2017, aawu.arh.noaa.gov will be discontinued. The new AAWU web address is weather.gov/aawu. It is now live and will run in-parallel with the old site until it is discontinued on July 14, 2017. Please continue to send any feedback or questions regarding the new webpages to nws.ar.aawu.webauthors@noaa.gov.  Thank you for your patience during this time of transition.
AAWU Home :: Display TAF Add Bookmark
SPECI PATO 251424Z AUTO 08006KT 10SM BKN027 BKN035 OVC060 11/09 A3002
     RMK AO2 T01110089 TSNO=

SPECI PATO 251432Z AUTO 08007KT 10SM SCT027 BKN049 OVC060 11/09 A3002
     RMK AO2 T01110089 TSNO=

METAR PATO 251453Z AUTO 08007KT 10SM FEW025 SCT050 OVC060 11/09
    A3002 RMK AO2 SLP165 T01110089 56005 TSNO=

METAR PATO 251553Z AUTO 08008KT 10SM FEW028 FEW035 OVC055 12/09 A3002
     RMK AO2 SLP164 T01170094 TSNO=

METAR PATO 251653Z AUTO 10008KT 9SM FEW026 OVC055 12/09 A3001 RMK
    AO2 SLP163 T01170094 TSNO=

METAR PATO 251753Z AUTO 11007KT 10SM OVC055 12/10 A3001 RMK AO2
    SLP162 T01220100 10122 20111 56004 TSNO=

METAR PATO 251853Z AUTO 10008KT 10SM FEW018 SCT039 BKN055 12/10 A3000
     RMK AO2 SLP160 T01220100 TSNO=

METAR PATO 251953Z AUTO 10009KT 10SM BKN038 OVC060 13/11 A3000 RMK
    AO2 SLP158 T01330106 TSNO=


NOAA's National Weather Service
Alaska Aviation Weather Unit
6930 Sand Lake Road
Anchorage, AK 99502-1845
Disclaimer
Credits
Glossary
Privacy Policy
About Us
Career Opportunities
Contact AAWU Internet Services Site last modified: April, 17th 2012